Saint Ignatius, MT (59865)

10:01 PM MST on February 09, 2016 (GMT -0700)
Saint Ignatius | | Change Station
CLOSE
Current Station
Personal Weather Station
Location: Saint Ignatius, MT
Elevation: 2818 ft
Nearby Weather Stations

Elev 2818 ft 47.32 °N, 114.14 °W | Updated 60 seconds ago

Clear
Clear
31.2 °F
Feels Like 31 °F
N
3.0
Wind Variable Wind from SSW
Gusts 6.0 mph

Today
High -- | Low -- °F
--% Chance of Precip.
Yesterday
High -- | Low -- °F
Precip. -- in
Pressure 30.41 in
Visibility 10.0 miles
Clouds Clear
Windchill 31 °F
Dew Point 29 °F
Humidity 90%
Rainfall 0.00 in
Snow Depth Not available.
7:51 AM 5:50 PM
Waxing Crescent, 3% visible
METAR KMSO 100453Z 00000KT 10SM CLR 00/M02 A3029 RMK AO2 SLP296 T00001022
Pressure 30.41 in
Visibility 10.0 miles
Clouds Clear
Windchill 31 °F
Dew Point 29 °F
Humidity 90%
Rainfall 0.00 in
Snow Depth Not available.
7:51 AM 5:50 PM
Waxing Crescent, 3% visible
METAR KMSO 100453Z 00000KT 10SM CLR 00/M02 A3029 RMK AO2 SLP296 T00001022

10-Day Weather Forecast

Almanac

Astronomy

Feb. 09, 2016 Rise Set
Actual Time
Civil Twilight
Nautical Twilight
Astronomical Twilight
Moon
Length of Visible Light
Length of Day
Tomorrow will be .
, % of the Moon is Illuminated

Today's Extremes

State Highs State Lows

Community

WunderPhotos

Upload Photos

1,891,818 photos uploaded!

WunderBlog® & News

Nearby

Air Quality

  Air Quality AQ Index Pollutant
Not available.

Snow Depth

Station Depth Elevation

Earthquake Activity

City Distance Mag. Time & Date
Minimum magnitude displayed is 2.5.

Coastal Water Temperatures

Place Temperature

Stations

Nearby Weather Stations

Station Location Temp. Windchill Dew Point Humidity Wind Precip. Elev Updated Type
                   

Watches & Warnings

There are currently no watches in effect.